createdAt,value
2022-11-24T00:01:32.410Z,15.07
2022-11-24T00:04:02.664Z,16.08
2022-11-24T00:06:32.986Z,17.77
2022-11-24T00:09:01.946Z,14.32
2022-11-24T00:11:33.134Z,15.80
2022-11-24T00:14:02.581Z,15.68
2022-11-24T00:16:34.699Z,17.83
2022-11-24T00:19:08.291Z,17.42
2022-11-24T00:21:38.507Z,16.40
2022-11-24T00:24:07.738Z,16.50
2022-11-24T00:26:38.686Z,16.02
2022-11-24T00:29:08.906Z,13.05
2022-11-24T00:31:40.793Z,18.02
2022-11-24T00:34:12.591Z,15.68
2022-11-24T00:39:13.666Z,14.70
2022-11-24T00:41:42.827Z,14.50
2022-11-24T00:44:11.908Z,13.95
2022-11-24T00:46:42.587Z,14.93
2022-11-24T00:49:11.418Z,15.07
2022-11-24T00:51:40.023Z,15.10
2022-11-24T00:54:08.877Z,16.02
2022-11-24T00:56:37.961Z,15.63
2022-11-24T00:59:06.670Z,15.68
2022-11-24T01:01:35.357Z,16.05
2022-11-24T01:04:05.661Z,17.08
2022-11-24T01:06:36.012Z,15.43
2022-11-24T01:09:05.415Z,16.70
2022-11-24T01:11:56.539Z,16.70
2022-11-24T01:14:26.092Z,15.77
2022-11-24T01:16:55.130Z,19.02
2022-11-24T01:19:25.309Z,19.30
2022-11-24T01:21:53.736Z,19.08
2022-11-24T01:24:22.633Z,19.05
2022-11-24T01:26:51.084Z,20.70
2022-11-24T01:29:20.152Z,23.15
2022-11-24T01:31:48.677Z,21.08
2022-11-24T01:34:17.366Z,17.30
2022-11-24T01:36:47.424Z,18.00
2022-11-24T01:39:15.922Z,19.75
2022-11-24T01:41:44.620Z,18.35
2022-11-24T01:44:24.827Z,17.73
2022-11-24T01:46:57.815Z,18.55
2022-11-24T01:49:33.581Z,18.90
2022-11-24T01:52:09.887Z,18.58
2022-11-24T01:54:43.379Z,17.63
2022-11-24T01:57:16.708Z,20.02
2022-11-24T01:59:47.158Z,20.05
2022-11-24T02:02:19.197Z,22.70
2022-11-24T02:04:48.629Z,19.85
2022-11-24T02:07:19.565Z,21.38
2022-11-24T02:09:53.132Z,18.75
2022-11-24T02:12:22.920Z,22.75
2022-11-24T02:14:52.591Z,25.38
2022-11-24T02:17:23.653Z,22.48
2022-11-24T02:19:56.746Z,27.75
2022-11-24T02:22:35.541Z,26.17
2022-11-24T02:25:12.214Z,26.17
2022-11-24T02:27:49.377Z,25.08
2022-11-24T02:30:20.958Z,24.75
2022-11-24T02:32:49.507Z,26.48
2022-11-24T02:35:18.410Z,28.55
2022-11-24T02:37:47.055Z,26.73
2022-11-24T02:40:17.106Z,25.98
2022-11-24T02:42:48.221Z,23.25
2022-11-24T02:45:17.902Z,23.33
2022-11-24T02:47:47.465Z,23.77
2022-11-24T02:50:16.179Z,23.27
2022-11-24T02:52:45.442Z,25.17
2022-11-24T02:55:14.177Z,27.70
2022-11-24T02:57:42.652Z,23.10
2022-11-24T03:00:13.871Z,21.02
2022-11-24T03:02:42.657Z,22.77
2022-11-24T03:05:14.859Z,22.73
2022-11-24T03:07:43.406Z,24.10
2022-11-24T03:10:12.058Z,25.63
2022-11-24T03:12:40.491Z,19.30
2022-11-24T03:15:09.966Z,20.75
2022-11-24T03:17:40.077Z,25.75
2022-11-24T03:20:09.938Z,22.77
2022-11-24T03:22:38.677Z,21.52
2022-11-24T03:25:08.307Z,18.92
2022-11-24T03:27:36.741Z,19.73
2022-11-24T03:30:07.032Z,21.00
2022-11-24T03:32:35.675Z,19.02
2022-11-24T03:35:06.370Z,21.77
2022-11-24T03:37:35.168Z,20.80
2022-11-24T03:40:04.099Z,18.92
2022-11-24T03:42:33.205Z,17.75
2022-11-24T03:45:16.713Z,19.20
2022-11-24T03:47:51.896Z,18.98
2022-11-24T03:50:22.249Z,18.02
2022-11-24T03:52:50.681Z,18.23
2022-11-24T03:55:19.677Z,18.65
2022-11-24T03:57:48.323Z,19.10
2022-11-24T04:00:18.194Z,21.23
2022-11-24T04:02:48.442Z,19.52
2022-11-24T04:05:17.619Z,18.45
2022-11-24T04:07:47.711Z,20.48
2022-11-24T04:10:16.641Z,17.90
2022-11-24T04:12:44.373Z,19.92
2022-11-24T04:15:14.945Z,18.80
2022-11-24T04:17:44.143Z,18.77
2022-11-24T04:20:14.126Z,18.13
2022-11-24T04:22:43.163Z,18.63
2022-11-24T04:25:13.974Z,22.00
2022-11-24T04:27:42.699Z,16.70
2022-11-24T04:30:12.255Z,18.65
2022-11-24T04:32:41.116Z,14.85
2022-11-24T04:35:10.194Z,18.33
2022-11-24T04:37:39.021Z,17.95
2022-11-24T04:40:09.652Z,17.23
2022-11-24T04:42:40.059Z,16.10
2022-11-24T04:45:10.025Z,17.73
2022-11-24T04:47:38.948Z,17.35
2022-11-24T04:50:09.048Z,18.77
2022-11-24T04:52:37.689Z,16.40
2022-11-24T04:55:06.900Z,18.27
2022-11-24T04:57:35.531Z,15.70
2022-11-24T05:00:06.487Z,16.27
2022-11-24T05:02:35.229Z,15.43
2022-11-24T05:05:04.655Z,18.70
2022-11-24T05:07:35.169Z,17.73
2022-11-24T05:10:21.876Z,18.13
2022-11-24T05:12:55.896Z,16.35
2022-11-24T05:15:26.284Z,16.17
2022-11-24T05:17:55.384Z,17.17
2022-11-24T05:20:25.166Z,16.48
2022-11-24T05:22:53.676Z,16.45
2022-11-24T05:25:22.812Z,14.82
2022-11-24T05:27:51.372Z,14.75
2022-11-24T05:30:20.320Z,15.93
2022-11-24T05:32:50.944Z,17.63
2022-11-24T05:35:19.710Z,14.18
2022-11-24T05:37:48.225Z,17.02
2022-11-24T05:40:17.440Z,16.05
2022-11-24T05:42:48.027Z,14.32
2022-11-24T05:45:18.835Z,16.23
2022-11-24T05:47:47.914Z,14.25
2022-11-24T05:50:20.175Z,15.98
2022-11-24T05:52:49.550Z,16.55
2022-11-24T05:55:20.357Z,14.93
2022-11-24T05:57:50.467Z,16.30
2022-11-24T06:00:20.380Z,16.00
2022-11-24T06:02:50.131Z,16.30
2022-11-24T06:05:19.990Z,15.95
2022-11-24T06:07:49.340Z,17.02
2022-11-24T06:10:18.670Z,14.75
2022-11-24T06:12:47.362Z,18.35
2022-11-24T06:15:16.460Z,16.13
2022-11-24T06:17:45.362Z,17.10
2022-11-24T06:20:13.835Z,18.08
2022-11-24T06:22:44.188Z,17.48
2022-11-24T06:25:12.717Z,15.23
2022-11-24T06:27:41.272Z,15.43
2022-11-24T06:30:10.843Z,17.13
2022-11-24T06:32:42.568Z,17.55
2022-11-24T06:35:13.345Z,15.57
2022-11-24T06:37:43.443Z,19.90
2022-11-24T06:40:12.583Z,17.95
2022-11-24T06:42:41.502Z,17.92
2022-11-24T06:45:11.467Z,16.65
2022-11-24T06:47:40.048Z,17.02
2022-11-24T06:50:10.736Z,17.73
2022-11-24T06:52:39.200Z,20.95
2022-11-24T06:55:10.046Z,16.02
2022-11-24T06:57:38.547Z,16.37
2022-11-24T07:00:08.801Z,15.10
2022-11-24T07:02:42.502Z,17.55
2022-11-24T07:05:14.253Z,17.23
2022-11-24T07:07:43.476Z,17.60
2022-11-24T07:10:13.440Z,15.88
2022-11-24T07:12:42.112Z,16.13
2022-11-24T07:15:11.225Z,16.52
2022-11-24T07:17:41.484Z,15.98
2022-11-24T07:20:11.163Z,15.18
2022-11-24T07:22:39.384Z,15.35
2022-11-24T07:25:09.946Z,15.45
2022-11-24T07:27:39.732Z,15.45
2022-11-24T07:30:09.533Z,15.30
2022-11-24T07:32:37.859Z,15.40
2022-11-24T07:35:07.339Z,15.10
2022-11-24T07:37:36.551Z,15.07
2022-11-24T07:40:06.119Z,16.70
2022-11-24T07:42:34.315Z,16.35
2022-11-24T07:45:04.294Z,14.77
2022-11-24T07:47:34.964Z,15.80
2022-11-24T07:50:04.078Z,14.35
2022-11-24T07:52:32.409Z,16.10
2022-11-24T07:55:01.166Z,13.07
2022-11-24T07:57:31.014Z,15.18
2022-11-24T07:59:59.455Z,15.27
2022-11-24T08:02:29.894Z,16.27
2022-11-24T08:04:58.400Z,14.35
2022-11-24T08:07:27.219Z,12.88
2022-11-24T08:09:56.143Z,12.95
2022-11-24T08:12:24.846Z,14.20
2022-11-24T08:14:53.387Z,14.63
2022-11-24T08:17:22.055Z,15.73
2022-11-24T08:19:52.283Z,16.33
2022-11-24T08:22:20.922Z,14.38
2022-11-24T08:24:49.461Z,13.77
2022-11-24T08:27:17.889Z,18.50
2022-11-24T08:29:46.534Z,12.88
2022-11-24T08:32:22.042Z,14.00
2022-11-24T08:34:59.534Z,15.18
2022-11-24T08:37:32.447Z,15.38
2022-11-24T08:40:00.982Z,13.98
2022-11-24T08:42:30.399Z,16.60
2022-11-24T08:44:59.362Z,15.20
2022-11-24T08:47:28.790Z,15.18
2022-11-24T08:49:59.040Z,14.85
2022-11-24T08:52:27.594Z,16.42
2022-11-24T08:54:56.237Z,14.15
2022-11-24T08:57:26.711Z,11.55
2022-11-24T08:59:57.414Z,13.80
2022-11-24T09:02:25.819Z,12.23
2022-11-24T09:04:55.070Z,14.90
2022-11-24T09:07:25.163Z,13.60
2022-11-24T09:09:54.359Z,13.43
2022-11-24T09:12:23.096Z,12.02
2022-11-24T09:14:51.949Z,13.88
2022-11-24T09:17:20.743Z,11.98
2022-11-24T09:19:49.287Z,13.25
2022-11-24T09:22:19.618Z,11.63
2022-11-24T09:24:49.991Z,12.50
2022-11-24T09:27:18.293Z,11.90
2022-11-24T09:29:47.674Z,12.70
2022-11-24T09:32:16.100Z,12.13
2022-11-24T09:34:46.667Z,12.10
2022-11-24T09:37:15.207Z,11.98
2022-11-24T09:39:44.132Z,11.82
2022-11-24T09:42:18.140Z,13.27
2022-11-24T09:45:00.006Z,13.60
2022-11-24T09:47:39.837Z,10.18
2022-11-24T09:50:15.971Z,11.80
2022-11-24T09:52:51.521Z,11.93
2022-11-24T09:55:31.768Z,13.07
2022-11-24T09:58:11.147Z,12.40
2022-11-24T10:00:43.304Z,14.73
2022-11-24T10:03:20.037Z,11.23
2022-11-24T10:05:51.844Z,10.25
2022-11-24T10:08:49.317Z,11.18
2022-11-24T10:11:27.192Z,12.07
2022-11-24T10:14:24.678Z,11.20
2022-11-24T10:16:58.868Z,10.73
2022-11-24T10:19:41.574Z,11.82
2022-11-24T10:22:26.226Z,12.18
2022-11-24T10:25:13.995Z,12.85
2022-11-24T10:27:49.555Z,14.10
2022-11-24T10:30:24.056Z,12.38
2022-11-24T10:32:58.476Z,11.82
2022-11-24T10:35:36.718Z,11.20
2022-11-24T10:38:15.387Z,13.82
2022-11-24T10:40:56.948Z,11.98
2022-11-24T10:43:28.038Z,12.30
2022-11-24T10:46:07.855Z,11.48
2022-11-24T10:48:42.139Z,15.60
2022-11-24T10:51:33.940Z,14.63
2022-11-24T10:54:12.255Z,13.05
2022-11-24T10:56:41.772Z,15.68
2022-11-24T10:59:33.371Z,13.70
2022-11-24T11:02:04.647Z,13.70
2022-11-24T11:04:35.138Z,12.27
2022-11-24T11:07:10.168Z,11.25
2022-11-24T11:09:40.525Z,12.90
2022-11-24T11:12:36.304Z,11.00
2022-11-24T11:15:24.788Z,13.48
2022-11-24T11:17:58.719Z,12.77
2022-11-24T11:20:31.521Z,15.05
2022-11-24T11:23:15.706Z,13.90
2022-11-24T11:25:44.892Z,14.05
2022-11-24T11:28:29.244Z,12.23
2022-11-24T11:31:18.433Z,13.43
2022-11-24T11:34:10.635Z,11.02
2022-11-24T11:36:45.459Z,11.82
2022-11-24T11:39:23.606Z,12.77
2022-11-24T11:41:57.670Z,13.60
2022-11-24T11:44:36.670Z,13.60
2022-11-24T11:47:19.085Z,12.52
2022-11-24T11:49:50.815Z,11.02
2022-11-24T11:52:41.920Z,12.60
2022-11-24T11:55:52.151Z,11.70
2022-11-24T11:58:44.817Z,12.35
2022-11-24T12:01:30.210Z,12.15
2022-11-24T12:04:11.734Z,12.30
2022-11-24T12:06:57.081Z,14.18
2022-11-24T12:09:41.694Z,12.07
2022-11-24T12:12:27.085Z,12.60
2022-11-24T12:15:10.737Z,12.60
2022-11-24T12:17:44.416Z,12.70
2022-11-24T12:20:44.476Z,12.65
2022-11-24T12:23:22.825Z,13.95
2022-11-24T12:25:59.601Z,15.82
2022-11-24T12:28:40.061Z,12.30
2022-11-24T12:31:16.490Z,11.73
2022-11-24T12:34:14.946Z,12.00
2022-11-24T12:36:59.087Z,13.95
2022-11-24T12:39:36.839Z,9.65
2022-11-24T12:42:12.112Z,12.52
2022-11-24T12:45:08.618Z,12.85
2022-11-24T12:47:50.941Z,13.35
2022-11-24T12:50:25.821Z,12.68
2022-11-24T12:53:01.024Z,13.02
2022-11-24T12:55:33.693Z,13.98
2022-11-24T12:58:12.249Z,12.05
2022-11-24T13:00:54.841Z,13.50
2022-11-24T13:03:33.685Z,14.52
2022-11-24T13:06:08.820Z,13.77
2022-11-24T13:08:38.402Z,14.48
2022-11-24T13:11:37.684Z,16.52
2022-11-24T13:14:08.707Z,13.70
2022-11-24T13:17:13.484Z,18.48
2022-11-24T13:19:39.463Z,14.68
2022-11-24T13:22:24.480Z,13.77
2022-11-24T13:25:15.764Z,11.45
2022-11-24T13:27:48.378Z,14.10
2022-11-24T13:30:59.218Z,14.65
2022-11-24T13:33:35.822Z,14.32
2022-11-24T13:36:35.700Z,14.10
2022-11-24T13:39:06.582Z,13.25
2022-11-24T13:42:08.978Z,15.43
2022-11-24T13:44:51.390Z,16.05
2022-11-24T13:47:41.343Z,15.57
2022-11-24T13:50:16.057Z,15.85
2022-11-24T13:52:48.658Z,15.90
2022-11-24T13:55:30.600Z,13.35
2022-11-24T13:58:03.731Z,17.65
2022-11-24T14:00:35.507Z,16.27
2022-11-24T14:03:08.072Z,14.88
2022-11-24T14:05:40.526Z,16.05
2022-11-24T14:08:21.371Z,13.65
2022-11-24T14:10:50.337Z,14.10
2022-11-24T14:13:27.148Z,14.88
2022-11-24T14:16:15.293Z,14.90
2022-11-24T14:18:48.679Z,14.40
2022-11-24T14:21:27.236Z,15.52
2022-11-24T14:23:58.407Z,15.98
2022-11-24T14:26:33.082Z,14.63
2022-11-24T14:29:07.534Z,16.05
2022-11-24T14:31:38.439Z,14.38
2022-11-24T14:34:19.456Z,13.82
2022-11-24T14:36:49.097Z,16.67
2022-11-24T14:39:19.879Z,14.00
2022-11-24T14:41:53.981Z,11.98
2022-11-24T14:44:26.330Z,14.95
2022-11-24T14:47:05.001Z,16.25
2022-11-24T14:49:35.385Z,14.13
2022-11-24T14:52:09.880Z,12.77
2022-11-24T14:54:45.780Z,13.52
2022-11-24T14:57:25.176Z,14.25
2022-11-24T15:00:17.115Z,14.88
2022-11-24T15:02:49.804Z,15.50
2022-11-24T15:05:19.742Z,15.02
2022-11-24T15:07:50.300Z,15.13
2022-11-24T15:10:23.019Z,17.38
2022-11-24T15:12:55.998Z,16.17
2022-11-24T15:15:35.523Z,16.42
2022-11-24T15:18:07.405Z,14.32
2022-11-24T15:20:41.442Z,14.55
2022-11-24T15:23:23.315Z,13.38
2022-11-24T15:25:53.195Z,14.90
2022-11-24T15:28:26.206Z,16.92
2022-11-24T15:30:55.986Z,17.83
2022-11-24T15:33:25.716Z,15.20
2022-11-24T15:35:54.912Z,17.75
2022-11-24T15:38:24.506Z,18.33
2022-11-24T15:40:55.641Z,16.95
2022-11-24T15:43:30.474Z,15.73
2022-11-24T15:45:59.941Z,15.43
2022-11-24T15:48:31.766Z,16.95
2022-11-24T15:51:05.304Z,16.00
2022-11-24T15:53:36.579Z,18.48
2022-11-24T15:56:08.457Z,15.37
2022-11-24T15:58:36.932Z,18.58
2022-11-24T16:01:05.524Z,17.05
2022-11-24T16:03:50.905Z,16.98
2022-11-24T16:06:25.003Z,18.98
2022-11-24T16:08:54.520Z,18.02
2022-11-24T16:11:23.569Z,19.98
2022-11-24T16:13:54.181Z,18.73
2022-11-24T16:16:25.026Z,15.27
2022-11-24T16:18:56.013Z,16.08
2022-11-24T16:21:24.490Z,17.05
2022-11-24T16:23:53.225Z,17.70
2022-11-24T16:26:21.714Z,17.45
2022-11-24T16:28:50.523Z,15.45
2022-11-24T16:31:19.855Z,17.02
2022-11-24T16:33:48.592Z,17.25
2022-11-24T16:36:18.750Z,18.35
2022-11-24T16:38:48.146Z,17.05
2022-11-24T16:41:16.578Z,14.75
2022-11-24T16:43:44.852Z,14.40
2022-11-24T16:46:21.645Z,16.25
2022-11-24T16:48:52.135Z,16.50
2022-11-24T16:51:24.465Z,16.20
2022-11-24T16:53:59.165Z,19.50
2022-11-24T16:56:28.321Z,18.02
2022-11-24T16:58:57.185Z,18.98
2022-11-24T17:01:26.302Z,17.92
2022-11-24T17:03:55.222Z,18.90
2022-11-24T17:06:25.536Z,17.00
2022-11-24T17:08:56.736Z,19.07
2022-11-24T17:11:27.577Z,20.73
2022-11-24T17:13:58.238Z,21.53
2022-11-24T17:16:28.114Z,22.45
2022-11-24T17:18:58.903Z,19.92
2022-11-24T17:21:29.370Z,20.58
2022-11-24T17:24:02.822Z,21.77
2022-11-24T17:26:31.434Z,21.48
2022-11-24T17:29:00.123Z,21.33
2022-11-24T17:31:32.321Z,20.60
2022-11-24T17:34:02.875Z,23.48
2022-11-24T17:36:34.290Z,22.58
2022-11-24T17:39:05.168Z,19.17
2022-11-24T17:41:34.855Z,21.13
2022-11-24T17:44:04.497Z,22.70
2022-11-24T17:46:33.409Z,22.10
2022-11-24T17:49:02.120Z,23.60
2022-11-24T17:51:32.334Z,25.80
2022-11-24T17:54:06.051Z,22.80
2022-11-24T17:56:48.588Z,24.60
2022-11-24T17:59:17.025Z,25.10
2022-11-24T18:01:46.019Z,24.23
2022-11-24T18:04:14.768Z,24.55
2022-11-24T18:06:46.456Z,25.80
2022-11-24T18:09:15.106Z,26.88
2022-11-24T18:11:43.806Z,29.48
2022-11-24T18:14:12.523Z,27.13
2022-11-24T18:16:41.138Z,28.73
2022-11-24T18:19:11.209Z,30.77
2022-11-24T18:21:41.481Z,27.95
2022-11-24T18:24:17.472Z,24.60
2022-11-24T18:26:50.414Z,30.48
2022-11-24T18:29:20.758Z,30.70
2022-11-24T18:31:49.377Z,29.85
2022-11-24T18:34:19.082Z,29.45
2022-11-24T18:36:52.262Z,28.55
2022-11-24T18:39:22.538Z,30.95
2022-11-24T18:41:50.957Z,28.80
2022-11-24T18:44:19.566Z,32.25
2022-11-24T18:46:49.934Z,29.08
2022-11-24T18:49:18.532Z,27.98
2022-11-24T18:51:47.276Z,29.67
2022-11-24T18:54:15.717Z,28.67
2022-11-24T18:56:46.114Z,28.80
2022-11-24T18:59:14.444Z,32.40
2022-11-24T19:01:42.994Z,29.35
2022-11-24T19:04:12.984Z,27.77
2022-11-24T19:06:41.573Z,28.05
2022-11-24T19:09:14.266Z,28.85
2022-11-24T19:11:44.558Z,36.30
2022-11-24T19:14:16.651Z,43.03
2022-11-24T19:16:46.483Z,35.92
2022-11-24T19:19:15.267Z,43.03
2022-11-24T19:21:44.711Z,43.22
2022-11-24T19:24:14.045Z,45.40
2022-11-24T19:26:43.020Z,43.78
2022-11-24T19:29:12.762Z,39.22
2022-11-24T19:31:45.069Z,35.78
2022-11-24T19:34:13.711Z,36.80
2022-11-24T19:36:43.398Z,33.83
2022-11-24T19:39:15.473Z,34.88
2022-11-24T19:41:44.209Z,31.67
2022-11-24T19:44:13.666Z,31.05
2022-11-24T19:46:42.564Z,35.72
2022-11-24T19:49:12.661Z,35.92
2022-11-24T19:51:41.534Z,35.10
2022-11-24T19:54:12.991Z,35.05
2022-11-24T19:56:42.224Z,37.40
2022-11-24T19:59:14.430Z,35.55
2022-11-24T20:01:44.758Z,51.95
2022-11-24T20:04:17.005Z,50.33
2022-11-24T20:06:47.148Z,42.33
2022-11-24T20:09:18.325Z,42.45
2022-11-24T20:11:51.544Z,40.30
2022-11-24T20:14:22.198Z,36.15
2022-11-24T20:16:51.257Z,38.25
2022-11-24T20:19:21.281Z,38.85
2022-11-24T20:21:50.471Z,40.70
2022-11-24T20:24:20.943Z,37.80
2022-11-24T20:26:51.599Z,39.38
2022-11-24T20:29:20.809Z,42.53
2022-11-24T20:31:51.885Z,38.72
2022-11-24T20:34:23.219Z,35.00
2022-11-24T20:36:53.898Z,41.08
2022-11-24T20:39:25.614Z,43.42
2022-11-24T20:41:56.751Z,41.15
2022-11-24T20:44:27.891Z,39.67
2022-11-24T20:46:58.338Z,39.70
2022-11-24T20:49:29.880Z,46.70
2022-11-24T20:51:58.996Z,42.20
2022-11-24T20:54:28.240Z,41.83
2022-11-24T20:56:56.659Z,37.58
2022-11-24T20:59:26.324Z,45.58
2022-11-24T21:01:57.300Z,46.38
2022-11-24T21:04:28.326Z,45.58
2022-11-24T21:06:57.187Z,43.03
2022-11-24T21:09:27.347Z,49.28
2022-11-24T21:11:57.877Z,54.72
2022-11-24T21:14:30.036Z,44.60
2022-11-24T21:17:01.098Z,40.95
2022-11-24T21:19:31.282Z,46.60
2022-11-24T21:22:02.173Z,45.88
2022-11-24T21:24:31.160Z,44.60
2022-11-24T21:27:01.849Z,37.75
2022-11-24T21:29:31.663Z,35.65
2022-11-24T21:32:00.775Z,42.05
2022-11-24T21:34:31.203Z,40.50
2022-11-24T21:37:00.103Z,40.13
2022-11-24T21:39:28.638Z,42.03
2022-11-24T21:41:57.241Z,39.60
2022-11-24T21:44:26.323Z,36.08
2022-11-24T21:46:56.214Z,41.70
2022-11-24T21:49:25.105Z,35.40
2022-11-24T21:51:56.387Z,42.65
2022-11-24T21:54:25.217Z,39.17
2022-11-24T21:56:55.652Z,42.35
2022-11-24T21:59:24.025Z,41.25
2022-11-24T22:01:52.823Z,43.10
2022-11-24T22:04:21.265Z,44.05
2022-11-24T22:06:50.264Z,44.80
2022-11-24T22:09:20.376Z,38.00
2022-11-24T22:11:50.050Z,34.88
2022-11-24T22:14:21.157Z,41.75
2022-11-24T22:16:50.377Z,40.70
2022-11-24T22:19:19.364Z,36.72
2022-11-24T22:21:47.960Z,37.20
2022-11-24T22:24:16.601Z,36.88
2022-11-24T22:26:48.793Z,35.88
2022-11-24T22:29:17.578Z,36.03
2022-11-24T22:31:46.095Z,35.95
2022-11-24T22:34:14.774Z,38.53
2022-11-24T22:36:43.566Z,38.65
2022-11-24T22:39:13.622Z,37.08
2022-11-24T22:41:42.242Z,40.67
2022-11-24T22:46:44.369Z,37.17
2022-11-24T22:49:13.282Z,39.20
2022-11-24T22:51:42.404Z,43.05
2022-11-24T22:54:13.141Z,40.70
2022-11-24T22:56:41.436Z,35.03
2022-11-24T22:59:10.087Z,38.42
2022-11-24T23:01:39.947Z,38.88
2022-11-24T23:04:09.068Z,41.80
2022-11-24T23:06:38.403Z,43.22
2022-11-24T23:09:07.824Z,37.45
2022-11-24T23:11:38.871Z,42.45
2022-11-24T23:14:09.649Z,36.42
2022-11-24T23:16:39.692Z,40.05
2022-11-24T23:19:09.439Z,38.20
2022-11-24T23:21:39.766Z,42.90
2022-11-24T23:24:10.077Z,38.33
2022-11-24T23:26:40.981Z,42.20
2022-11-24T23:29:11.211Z,41.75
2022-11-24T23:31:41.445Z,43.58
2022-11-24T23:34:10.591Z,36.28
2022-11-24T23:36:39.643Z,45.80
2022-11-24T23:39:12.372Z,40.65
2022-11-24T23:41:41.367Z,37.97
2022-11-24T23:44:10.155Z,50.53
2022-11-24T23:46:38.639Z,42.85
2022-11-24T23:49:08.844Z,40.08
2022-11-24T23:51:42.144Z,44.92
2022-11-24T23:54:11.294Z,37.03
2022-11-24T23:56:39.775Z,40.90
2022-11-24T23:59:11.721Z,45.17
